Time;durP1;ratioP1;P1;durP2;ratioP2;P2;SDS_P1;SDS_P2;PMS_P1;PMS_P2;Temp;Humidity;BMP_temperature;BMP_pressure;BME280_temperature;BME280_humidity;BME280_pressure;Samples;Min_cycle;Max_cycle;Signal;HPM_P1;HPM_P2
2022/10/14 00:01:59;;;;;;;;;;;;;;;;;;5114495;27;20068;-57
2022/10/14 00:04:24;;;;;;;;;;;;;;;;;;5121008;27;19912;-57
2022/10/14 00:06:49;;;;;;;;;;;;;;;;;;5124236;27;19951;-57
2022/10/14 00:09:14;;;;;;;;;;;;;;;;;;5124161;27;20254;-57
2022/10/14 00:11:40;;;;;;;;;;;;;;;;;;5119469;27;19916;-56
2022/10/14 00:14:05;;;;;;;;;;;;;;;;;;5115397;27;19915;-56
2022/10/14 00:16:30;;;;;;;;;;;;;;;;;;5113625;27;20359;-56
2022/10/14 00:18:55;;;;;;;;;;;;;;;;;;5118536;27;19918;-56
2022/10/14 00:21:20;;;;;;;;;;;;;;;;;;5123580;27;19980;-56
2022/10/14 00:23:45;;;;;;;;;;;;;;;;;;5117953;27;19911;-56
2022/10/14 00:26:10;;;;;;;;;;;;;;;;;;5124695;27;19916;-56
2022/10/14 00:28:35;;;;;;;;;;;;;;;;;;5122261;27;20340;-56
2022/10/14 00:31:00;;;;;;;;;;;;;;;;;;5128350;27;20006;-56
2022/10/14 00:33:26;;;;;;;;;;;;;;;;;;5117089;27;19958;-56
2022/10/14 00:35:51;;;;;;;;;;;;;;;;;;5122230;27;19960;-56
2022/10/14 00:38:16;;;;;;;;;;;;;;;;;;5113454;27;19947;-56
2022/10/14 00:40:41;;;;;;;;;;;;;;;;;;5120280;27;19915;-56
2022/10/14 00:43:06;;;;;;;;;;;;;;;;;;5130944;27;19911;-57
2022/10/14 00:45:31;;;;;;;;;;;;;;;;;;5114757;27;19912;-56
2022/10/14 00:47:56;;;;;;;;;;;;;;;;;;5111687;27;19919;-57
2022/10/14 00:50:22;;;;;;;;;;;;;;;;;;5119046;27;19918;-57
2022/10/14 00:52:47;;;;;;;;;;;;;;;;;;5119449;27;19912;-55
2022/10/14 00:55:12;;;;;;;;;;;;;;;;;;5123283;27;19950;-56
2022/10/14 00:57:37;;;;;;;;;;;;;;;;;;5117277;27;20010;-56
2022/10/14 01:00:03;;;;;;;;;;;;;;;;;;5115625;27;20002;-58
2022/10/14 01:02:28;;;;;;;;;;;;;;;;;;5129910;27;19918;-57
2022/10/14 01:04:53;;;;;;;;;;;;;;;;;;5127785;27;19918;-56
2022/10/14 01:07:18;;;;;;;;;;;;;;;;;;5110983;27;19912;-56
2022/10/14 01:09:43;;;;;;;;;;;;;;;;;;5113079;27;20330;-57
2022/10/14 01:12:08;;;;;;;;;;;;;;;;;;5124852;27;20014;-57
2022/10/14 01:14:33;;;;;;;;;;;;;;;;;;5128896;27;19929;-57
2022/10/14 01:16:59;;;;;;;;;;;;;;;;;;5114532;27;19919;-57
2022/10/14 01:19:24;;;;;;;;;;;;;;;;;;5110614;27;19916;-57
2022/10/14 01:21:49;;;;;;;;;;;;;;;;;;5114516;27;19934;-57
2022/10/14 01:24:14;;;;;;;;;;;;;;;;;;5114222;27;20062;-57
2022/10/14 01:26:39;;;;;;;;;;;;;;;;;;5117865;27;19911;-57
2022/10/14 01:29:04;;;;;;;;;;;;;;;;;;5119872;27;19961;-58
2022/10/14 01:31:29;;;;;;;;;;;;;;;;;;5114863;27;20022;-57
2022/10/14 01:33:54;;;;;;;;;;;;;;;;;;5112699;27;19919;-57
2022/10/14 01:36:19;;;;;;;;;;;;;;;;;;5113799;27;19915;-57
2022/10/14 01:38:44;;;;;;;;;;;;;;;;;;5125475;27;19912;-57
2022/10/14 01:41:09;;;;;;;;;;;;;;;;;;5121690;27;20088;-57
2022/10/14 01:43:34;;;;;;;;;;;;;;;;;;5125401;27;19951;-57
2022/10/14 01:46:00;;;;;;;;;;;;;;;;;;5124866;27;19925;-57
2022/10/14 01:48:25;;;;;;;;;;;;;;;;;;5125724;27;19919;-56
2022/10/14 01:50:50;;;;;;;;;;;;;;;;;;5121716;27;19911;-56
2022/10/14 01:53:15;;;;;;;;;;;;;;;;;;5111164;27;20286;-56
2022/10/14 01:55:40;;;;;;;;;;;;;;;;;;5126015;27;20405;-56
2022/10/14 01:58:06;;;;;;;;;;;;;;;;;;5121654;27;19970;-56
2022/10/14 02:00:31;;;;;;;;;;;;;;;;;;5130406;27;20013;-57
2022/10/14 02:02:56;;;;;;;;;;;;;;;;;;5114243;27;20289;-56
2022/10/14 02:05:21;;;;;;;;;;;;;;;;;;5120529;27;19915;-57
2022/10/14 02:07:46;;;;;;;;;;;;;;;;;;5121528;27;20002;-57
2022/10/14 02:10:11;;;;;;;;;;;;;;;;;;5113276;27;19911;-56
2022/10/14 02:12:36;;;;;;;;;;;;;;;;;;5112654;27;19912;-56
2022/10/14 02:15:01;;;;;;;;;;;;;;;;;;5121566;27;19927;-56
2022/10/14 02:17:26;;;;;;;;;;;;;;;;;;5131363;27;19907;-57
2022/10/14 02:19:52;;;;;;;;;;;;;;;;;;5127236;27;19957;-56
2022/10/14 02:22:17;;;;;;;;;;;;;;;;;;5120036;27;20027;-56
2022/10/14 02:24:42;;;;;;;;;;;;;;;;;;5128922;27;19918;-57
2022/10/14 02:27:07;;;;;;;;;;;;;;;;;;5113679;27;19916;-57
2022/10/14 02:29:32;;;;;;;;;;;;;;;;;;5111787;28;19915;-58
2022/10/14 02:31:57;;;;;;;;;;;;;;;;;;5120388;28;19924;-56
2022/10/14 02:34:22;;;;;;;;;;;;;;;;;;5110987;28;19981;-56
2022/10/14 02:36:47;;;;;;;;;;;;;;;;;;5120706;28;19915;-57
2022/10/14 02:39:12;;;;;;;;;;;;;;;;;;5112949;28;19915;-57
2022/10/14 02:41:38;;;;;;;;;;;;;;;;;;5121643;28;20340;-57
2022/10/14 02:44:03;;;;;;;;;;;;;;;;;;5114104;28;19912;-57
2022/10/14 02:46:28;;;;;;;;;;;;;;;;;;5120589;28;19923;-57
2022/10/14 02:48:53;;;;;;;;;;;;;;;;;;5111973;28;19912;-57
2022/10/14 02:51:18;;;;;;;;;;;;;;;;;;5126700;28;19923;-57
2022/10/14 02:53:43;;;;;;;;;;;;;;;;;;5123834;28;19911;-57
2022/10/14 02:56:08;;;;;;;;;;;;;;;;;;5128003;28;19915;-57
2022/10/14 02:58:33;;;;;;;;;;;;;;;;;;5122301;28;19970;-57
2022/10/14 03:00:58;;;;;;;;;;;;;;;;;;5123332;28;19949;-57
2022/10/14 03:03:24;;;;;;;;;;;;;;;;;;5128252;28;19918;-57
2022/10/14 03:05:49;;;;;;;;;;;;;;;;;;5119796;28;19912;-57
2022/10/14 03:08:14;;;;;;;;;;;;;;;;;;5118159;27;19947;-57
2022/10/14 03:10:39;;;;;;;;;;;;;;;;;;5118739;27;19918;-56
2022/10/14 03:13:04;;;;;;;;;;;;;;;;;;5122803;27;19916;-57
2022/10/14 03:15:29;;;;;;;;;;;;;;;;;;5121319;27;19916;-57
2022/10/14 03:17:54;;;;;;;;;;;;;;;;;;5125375;27;19911;-56
2022/10/14 03:20:19;;;;;;;;;;;;;;;;;;5125602;27;20350;-58
2022/10/14 03:22:44;;;;;;;;;;;;;;;;;;5119770;27;19919;-56
2022/10/14 03:25:10;;;;;;;;;;;;;;;;;;5121931;27;19937;-55
2022/10/14 03:27:35;;;;;;;;;;;;;;;;;;5128777;27;20000;-55
2022/10/14 03:30:00;;;;;;;;;;;;;;;;;;5119547;27;20378;-56
2022/10/14 03:32:25;;;;;;;;;;;;;;;;;;5119943;27;19916;-55
2022/10/14 03:34:50;;;;;;;;;;;;;;;;;;5119147;27;19965;-56
2022/10/14 03:37:15;;;;;;;;;;;;;;;;;;5124638;27;19912;-58
2022/10/14 03:39:40;;;;;;;;;;;;;;;;;;5122829;27;20089;-55
2022/10/14 03:42:05;;;;;;;;;;;;;;;;;;5129255;27;19964;-58
2022/10/14 03:44:31;;;;;;;;;;;;;;;;;;5114298;27;20020;-56
2022/10/14 03:46:56;;;;;;;;;;;;;;;;;;5126492;27;20278;-56
2022/10/14 03:49:21;;;;;;;;;;;;;;;;;;5133154;27;20281;-56
2022/10/14 03:51:46;;;;;;;;;;;;;;;;;;5127651;27;19994;-55
2022/10/14 03:54:11;;;;;;;;;;;;;;;;;;5128204;27;19972;-55
2022/10/14 03:56:36;;;;;;;;;;;;;;;;;;5126333;27;19915;-55
2022/10/14 03:59:01;;;;;;;;;;;;;;;;;;5117685;27;20369;-55
2022/10/14 04:01:26;;;;;;;;;;;;;;;;;;5124230;27;19912;-56
2022/10/14 04:03:51;;;;;;;;;;;;;;;;;;5128096;27;19914;-56
2022/10/14 04:06:16;;;;;;;;;;;;;;;;;;5134088;27;19911;-56
2022/10/14 04:08:42;;;;;;;;;;;;;;;;;;5136948;27;20293;-56
2022/10/14 04:11:07;;;;;;;;;;;;;;;;;;5143957;27;19927;-56
2022/10/14 04:13:32;;;;;;;;;;;;;;;;;;5124892;27;19976;-57
2022/10/14 04:15:57;;;;;;;;;;;;;;;;;;5122732;27;20421;-56
2022/10/14 04:18:22;;;;;;;;;;;;;;;;;;5117541;27;19922;-57
2022/10/14 04:20:47;;;;;;;;;;;;;;;;;;5128431;27;19964;-56
2022/10/14 04:23:12;;;;;;;;;;;;;;;;;;5118826;27;20373;-56
2022/10/14 04:25:38;;;;;;;;;;;;;;;;;;5119186;27;19916;-57
2022/10/14 04:28:03;;;;;;;;;;;;;;;;;;5113313;27;20003;-57
2022/10/14 04:30:28;;;;;;;;;;;;;;;;;;5121916;27;19923;-57
2022/10/14 04:32:53;;;;;;;;;;;;;;;;;;5121983;27;19957;-58
2022/10/14 04:35:18;;;;;;;;;;;;;;;;;;5108916;28;20390;-59
2022/10/14 04:37:43;;;;;;;;;;;;;;;;;;5110590;27;19999;-59
2022/10/14 04:40:08;;;;;;;;;;;;;;;;;;5117948;27;19916;-59
2022/10/14 04:42:33;;;;;;;;;;;;;;;;;;5120839;27;19972;-60
2022/10/14 04:44:58;;;;;;;;;;;;;;;;;;5108750;27;20021;-60
2022/10/14 04:47:23;;;;;;;;;;;;;;;;;;5113649;27;19999;-59
2022/10/14 04:49:49;;;;;;;;;;;;;;;;;;5110692;27;19912;-59
2022/10/14 04:52:14;;;;;;;;;;;;;;;;;;5119359;27;19915;-60
2022/10/14 04:54:39;;;;;;;;;;;;;;;;;;5117263;27;19919;-57
2022/10/14 04:57:04;;;;;;;;;;;;;;;;;;5119927;27;19915;-59
2022/10/14 04:59:29;;;;;;;;;;;;;;;;;;5114039;27;21593;-58
2022/10/14 05:01:54;;;;;;;;;;;;;;;;;;5123301;27;20006;-59
2022/10/14 05:04:19;;;;;;;;;;;;;;;;;;5123240;27;19930;-59
2022/10/14 05:06:44;;;;;;;;;;;;;;;;;;5117071;27;19919;-58
2022/10/14 05:09:09;;;;;;;;;;;;;;;;;;5117321;27;19975;-58
2022/10/14 05:11:34;;;;;;;;;;;;;;;;;;5117482;27;20583;-59
2022/10/14 05:13:59;;;;;;;;;;;;;;;;;;5113904;27;19958;-58
2022/10/14 05:16:25;;;;;;;;;;;;;;;;;;5116455;27;19912;-59
2022/10/14 05:18:50;;;;;;;;;;;;;;;;;;5121513;27;20361;-58
2022/10/14 05:21:15;;;;;;;;;;;;;;;;;;5119698;27;19912;-59
2022/10/14 05:23:40;;;;;;;;;;;;;;;;;;5116240;27;19986;-58
2022/10/14 05:26:06;;;;;;;;;;;;;;;;;;5112168;27;19916;-59
2022/10/14 05:28:31;;;;;;;;;;;;;;;;;;5112135;28;19952;-58
2022/10/14 05:30:56;;;;;;;;;;;;;;;;;;5111457;28;19927;-58
2022/10/14 05:33:21;;;;;;;;;;;;;;;;;;5112295;28;20400;-58
2022/10/14 05:35:46;;;;;;;;;;;;;;;;;;5116852;27;19915;-59
2022/10/14 05:38:12;;;;;;;;;;;;;;;;;;5132672;27;19911;-59
2022/10/14 05:40:37;;;;;;;;;;;;;;;;;;5132579;27;19908;-59
2022/10/14 05:43:02;;;;;;;;;;;;;;;;;;5128591;27;19917;-57
2022/10/14 05:45:28;;;;;;;;;;;;;;;;;;5116648;27;20015;-57
2022/10/14 05:47:53;;;;;;;;;;;;;;;;;;5125425;27;19965;-57
2022/10/14 05:50:18;;;;;;;;;;;;;;;;;;5113513;27;19943;-57
2022/10/14 05:52:43;;;;;;;;;;;;;;;;;;5111807;27;19998;-57
2022/10/14 05:55:08;;;;;;;;;;;;;;;;;;5114093;27;19916;-57
2022/10/14 05:57:33;;;;;;;;;;;;;;;;;;5112021;27;20523;-57
2022/10/14 05:59:58;;;;;;;;;;;;;;;;;;5122160;27;19923;-56
2022/10/14 06:02:23;;;;;;;;;;;;;;;;;;5131983;27;20168;-57
2022/10/14 06:04:48;;;;;;;;;;;;;;;;;;5132176;27;19914;-57
2022/10/14 06:07:14;;;;;;;;;;;;;;;;;;5124889;27;20337;-57
2022/10/14 06:09:39;;;;;;;;;;;;;;;;;;5110417;27;19959;-57
2022/10/14 06:12:04;;;;;;;;;;;;;;;;;;5128754;27;20305;-57
2022/10/14 06:14:29;;;;;;;;;;;;;;;;;;5122898;27;19959;-56
2022/10/14 06:16:54;;;;;;;;;;;;;;;;;;5108404;27;19916;-56
2022/10/14 06:19:19;;;;;;;;;;;;;;;;;;5126474;27;20275;-57
2022/10/14 06:21:45;;;;;;;;;;;;;;;;;;5120518;27;20286;-57
2022/10/14 06:24:10;;;;;;;;;;;;;;;;;;5111232;28;19915;-57
2022/10/14 06:26:35;;;;;;;;;;;;;;;;;;5117398;28;19923;-57
2022/10/14 06:29:00;;;;;;;;;;;;;;;;;;5132098;28;19915;-58
2022/10/14 06:31:25;;;;;;;;;;;;;;;;;;5119991;28;20355;-58
2022/10/14 06:33:50;;;;;;;;;;;;;;;;;;5121844;28;19922;-56
2022/10/14 06:36:15;;;;;;;;;;;;;;;;;;5130864;28;19938;-56
2022/10/14 06:38:40;;;;;;;;;;;;;;;;;;5126176;28;19915;-56
2022/10/14 06:41:05;;;;;;;;;;;;;;;;;;5117102;28;19923;-56
2022/10/14 06:43:31;;;;;;;;;;;;;;;;;;5130115;27;19919;-57
2022/10/14 06:45:56;;;;;;;;;;;;;;;;;;5125004;27;20423;-57
2022/10/14 06:48:21;;;;;;;;;;;;;;;;;;5135180;27;19908;-57
2022/10/14 06:50:46;;;;;;;;;;;;;;;;;;5133799;27;19912;-57
2022/10/14 06:53:11;;;;;;;;;;;;;;;;;;5122928;27;19923;-57
2022/10/14 06:55:36;;;;;;;;;;;;;;;;;;5115115;28;19951;-57
2022/10/14 06:58:01;;;;;;;;;;;;;;;;;;5115008;28;19914;-58
2022/10/14 07:00:26;;;;;;;;;;;;;;;;;;5114725;28;19908;-58
2022/10/14 07:02:51;;;;;;;;;;;;;;;;;;5125613;27;19993;-58
2022/10/14 07:05:17;;;;;;;;;;;;;;;;;;5116865;27;19919;-57
2022/10/14 07:07:42;;;;;;;;;;;;;;;;;;5114900;28;19962;-57
2022/10/14 07:10:07;;;;;;;;;;;;;;;;;;5114845;28;20254;-57
2022/10/14 07:12:32;;;;;;;;;;;;;;;;;;5114356;28;19915;-59
2022/10/14 07:14:57;;;;;;;;;;;;;;;;;;5115340;27;20366;-57
2022/10/14 07:17:22;;;;;;;;;;;;;;;;;;5097697;27;20373;-57
2022/10/14 07:19:47;;;;;;;;;;;;;;;;;;5134934;27;20355;-57
2022/10/14 07:22:12;;;;;;;;;;;;;;;;;;5134074;27;19917;-57
2022/10/14 07:24:37;;;;;;;;;;;;;;;;;;5134993;27;19908;-58
2022/10/14 07:27:02;;;;;;;;;;;;;;;;;;5134988;27;19907;-57
2022/10/14 07:29:27;;;;;;;;;;;;;;;;;;5134564;27;20315;-56
2022/10/14 07:31:52;;;;;;;;;;;;;;;;;;5131122;27;20017;-57
2022/10/14 07:34:18;;;;;;;;;;;;;;;;;;5114148;28;19916;-56
2022/10/14 07:36:43;;;;;;;;;;;;;;;;;;5114245;28;20327;-56
2022/10/14 07:39:08;;;;;;;;;;;;;;;;;;5114381;28;19908;-57
2022/10/14 07:41:33;;;;;;;;;;;;;;;;;;5119020;27;20289;-58
2022/10/14 07:44:01;;;;;;;;;;;;;;;;;;5134150;27;19907;-58
2022/10/14 07:46:28;;;;;;;;;;;;;;;;;;5134643;27;19911;-58
2022/10/14 07:48:53;;;;;;;;;;;;;;;;;;5134526;27;19907;-58
2022/10/14 07:51:18;;;;;;;;;;;;;;;;;;5132904;27;19930;-56
2022/10/14 07:53:43;;;;;;;;;;;;;;;;;;5113492;28;20010;-58
2022/10/14 07:56:08;;;;;;;;;;;;;;;;;;5113891;28;19912;-55
2022/10/14 07:58:33;;;;;;;;;;;;;;;;;;5113585;28;19915;-58
2022/10/14 08:00:58;;;;;;;;;;;;;;;;;;5113813;28;19912;-58
2022/10/14 08:03:24;;;;;;;;;;;;;;;;;;5114093;27;19938;-56
2022/10/14 08:05:49;;;;;;;;;;;;;;;;;;5113896;28;19907;-56
2022/10/14 08:08:14;;;;;;;;;;;;;;;;;;5113885;28;19907;-56
2022/10/14 08:10:39;;;;;;;;;;;;;;;;;;5113410;28;19908;-56
2022/10/14 08:13:04;;;;;;;;;;;;;;;;;;5114427;27;20325;-57
2022/10/14 08:15:30;;;;;;;;;;;;;;;;;;5119687;27;19927;-57
2022/10/14 08:17:55;;;;;;;;;;;;;;;;;;5119037;27;19951;-57
2022/10/14 08:20:20;;;;;;;;;;;;;;;;;;5113508;28;20000;-57
2022/10/14 08:22:45;;;;;;;;;;;;;;;;;;5113240;28;20285;-56
2022/10/14 08:25:10;;;;;;;;;;;;;;;;;;5115223;27;20210;-56
2022/10/14 08:27:36;;;;;;;;;;;;;;;;;;5113273;28;19912;-56
2022/10/14 08:30:01;;;;;;;;;;;;;;;;;;5113084;28;19919;-56
2022/10/14 08:32:26;;;;;;;;;;;;;;;;;;5113193;28;19907;-56
2022/10/14 08:34:51;;;;;;;;;;;;;;;;;;5113025;28;19916;-56
2022/10/14 08:37:16;;;;;;;;;;;;;;;;;;5113296;27;19911;-56
2022/10/14 08:39:42;;;;;;;;;;;;;;;;;;5112909;28;19919;-56
2022/10/14 08:42:07;;;;;;;;;;;;;;;;;;5111113;28;19915;-56
2022/10/14 08:44:32;;;;;;;;;;;;;;;;;;5109766;28;19986;-56
2022/10/14 08:46:57;;;;;;;;;;;;;;;;;;5119050;27;19915;-56
2022/10/14 08:49:22;;;;;;;;;;;;;;;;;;5133808;27;19912;-55
2022/10/14 08:51:47;;;;;;;;;;;;;;;;;;5133669;27;20005;-57
2022/10/14 08:54:14;;;;;;;;;;;;;;;;;;5131940;27;20002;-56
2022/10/14 08:56:39;;;;;;;;;;;;;;;;;;5133799;27;19990;-57
2022/10/14 08:59:04;;;;;;;;;;;;;;;;;;5133732;27;19950;-57
2022/10/14 09:01:29;;;;;;;;;;;;;;;;;;5133586;27;19953;-56
2022/10/14 09:03:54;;;;;;;;;;;;;;;;;;5131941;27;19911;-57
2022/10/14 09:06:19;;;;;;;;;;;;;;;;;;5133389;27;19907;-56
2022/10/14 09:08:44;;;;;;;;;;;;;;;;;;5133505;27;19911;-57
2022/10/14 09:11:09;;;;;;;;;;;;;;;;;;5133367;27;20354;-57
2022/10/14 09:13:35;;;;;;;;;;;;;;;;;;5133312;27;19907;-57
2022/10/14 09:16:00;;;;;;;;;;;;;;;;;;5129636;27;19919;-57
2022/10/14 09:18:25;;;;;;;;;;;;;;;;;;5133584;27;19942;-57
2022/10/14 09:20:50;;;;;;;;;;;;;;;;;;5131027;27;19917;-57
2022/10/14 09:23:15;;;;;;;;;;;;;;;;;;5126219;27;19974;-56
2022/10/14 09:25:41;;;;;;;;;;;;;;;;;;5112913;28;19918;-57
2022/10/14 09:28:06;;;;;;;;;;;;;;;;;;5112732;28;20471;-57
2022/10/14 09:30:31;;;;;;;;;;;;;;;;;;5112214;28;20018;-56
2022/10/14 09:32:58;;;;;;;;;;;;;;;;;;5112274;28;19960;-57
2022/10/14 09:35:23;;;;;;;;;;;;;;;;;;5113333;27;19972;-57
2022/10/14 09:37:48;;;;;;;;;;;;;;;;;;5112645;28;19912;-56
2022/10/14 09:40:14;;;;;;;;;;;;;;;;;;5112560;28;20426;-57
2022/10/14 09:42:39;;;;;;;;;;;;;;;;;;5111911;28;19908;-57
2022/10/14 09:45:04;;;;;;;;;;;;;;;;;;5122092;27;20334;-57
2022/10/14 09:47:29;;;;;;;;;;;;;;;;;;5133055;27;20037;-56
2022/10/14 09:49:55;;;;;;;;;;;;;;;;;;5132833;27;19907;-58
2022/10/14 09:52:20;;;;;;;;;;;;;;;;;;5132512;27;19998;-57
2022/10/14 09:54:45;;;;;;;;;;;;;;;;;;5128247;27;20358;-56
2022/10/14 09:57:10;;;;;;;;;;;;;;;;;;5112160;28;19958;-56
2022/10/14 09:59:35;;;;;;;;;;;;;;;;;;5112156;28;19903;-57
2022/10/14 10:02:00;;;;;;;;;;;;;;;;;;5112030;28;20541;-57
2022/10/14 10:04:26;;;;;;;;;;;;;;;;;;5111573;28;19904;-57
2022/10/14 10:06:52;;;;;;;;;;;;;;;;;;5112560;27;19916;-57
2022/10/14 10:09:17;;;;;;;;;;;;;;;;;;5112149;28;19908;-58
2022/10/14 10:11:42;;;;;;;;;;;;;;;;;;5111368;28;19908;-58
2022/10/14 10:14:07;;;;;;;;;;;;;;;;;;5119270;27;19911;-58
2022/10/14 10:16:33;;;;;;;;;;;;;;;;;;5122481;27;19912;-58
2022/10/14 10:18:59;;;;;;;;;;;;;;;;;;5111764;28;19916;-57
2022/10/14 10:21:24;;;;;;;;;;;;;;;;;;5111656;28;20271;-57
2022/10/14 10:23:49;;;;;;;;;;;;;;;;;;5111590;28;19903;-57
2022/10/14 10:26:14;;;;;;;;;;;;;;;;;;5111604;27;19915;-57
2022/10/14 10:28:40;;;;;;;;;;;;;;;;;;5111692;28;19990;-57
2022/10/14 10:31:05;;;;;;;;;;;;;;;;;;5111456;28;19923;-57
2022/10/14 10:33:31;;;;;;;;;;;;;;;;;;5111715;28;19948;-57
2022/10/14 10:35:56;;;;;;;;;;;;;;;;;;5111430;28;19919;-57
2022/10/14 10:38:21;;;;;;;;;;;;;;;;;;5112549;28;19916;-57
2022/10/14 10:40:46;;;;;;;;;;;;;;;;;;5111347;28;19923;-57
2022/10/14 10:43:12;;;;;;;;;;;;;;;;;;5111477;28;19915;-58
2022/10/14 10:45:37;;;;;;;;;;;;;;;;;;5111964;28;19990;-57
2022/10/14 10:48:02;;;;;;;;;;;;;;;;;;5111373;28;19991;-56
2022/10/14 10:50:28;;;;;;;;;;;;;;;;;;5111510;28;19915;-58
2022/10/14 10:52:55;;;;;;;;;;;;;;;;;;5111366;28;19904;-58
2022/10/14 10:55:20;;;;;;;;;;;;;;;;;;5111785;28;19915;-57
2022/10/14 10:57:45;;;;;;;;;;;;;;;;;;5110770;28;19908;-58
2022/10/14 11:00:10;;;;;;;;;;;;;;;;;;5112222;28;19915;-55
2022/10/14 11:02:37;;;;;;;;;;;;;;;;;;5111556;28;20429;-57
2022/10/14 11:05:02;;;;;;;;;;;;;;;;;;5111507;28;20021;-57
2022/10/14 11:12:54;;;;;;;;;;;;;;;;;;5119788;28;19915;-58
2022/10/14 11:15:19;;;;;;;;;;;;;;;;;;5129629;28;19912;-58
2022/10/14 11:17:44;;;;;;;;;;;;;;;;;;5121439;28;19942;-56
2022/10/14 11:20:10;;;;;;;;;;;;;;;;;;5131859;28;19907;-57
2022/10/14 11:22:37;;;;;;;;;;;;;;;;;;5131697;28;20273;-57
2022/10/14 11:25:02;;;;;;;;;;;;;;;;;;5131600;28;20346;-58
2022/10/14 11:27:27;;;;;;;;;;;;;;;;;;5131406;27;20352;-57
2022/10/14 11:29:52;;;;;;;;;;;;;;;;;;5117471;27;19972;-58
2022/10/14 11:32:18;;;;;;;;;;;;;;;;;;5115042;28;19915;-57
2022/10/14 11:34:43;;;;;;;;;;;;;;;;;;5114774;28;19911;-57
2022/10/14 11:37:08;;;;;;;;;;;;;;;;;;5114556;28;20278;-57
2022/10/14 11:39:33;;;;;;;;;;;;;;;;;;5124337;27;19918;-57
2022/10/14 11:42:00;;;;;;;;;;;;;;;;;;5135232;27;19960;-58
2022/10/14 11:44:25;;;;;;;;;;;;;;;;;;5135322;27;19907;-57
2022/10/14 11:46:50;;;;;;;;;;;;;;;;;;5135233;27;19918;-56
2022/10/14 11:49:15;;;;;;;;;;;;;;;;;;5132072;27;19918;-56
2022/10/14 11:51:40;;;;;;;;;;;;;;;;;;5126325;27;19915;-57
2022/10/14 11:54:05;;;;;;;;;;;;;;;;;;5134650;27;19908;-57
2022/10/14 11:56:30;;;;;;;;;;;;;;;;;;5135297;27;19960;-57
2022/10/14 11:58:55;;;;;;;;;;;;;;;;;;5135159;27;19999;-57
2022/10/14 12:01:21;;;;;;;;;;;;;;;;;;5130248;27;19918;-57
2022/10/14 12:03:46;;;;;;;;;;;;;;;;;;5114372;28;19925;-55
2022/10/14 12:06:11;;;;;;;;;;;;;;;;;;5114207;28;19912;-57
2022/10/14 12:08:36;;;;;;;;;;;;;;;;;;5114340;28;19911;-57
2022/10/14 12:11:01;;;;;;;;;;;;;;;;;;5116582;27;19915;-57
2022/10/14 12:13:26;;;;;;;;;;;;;;;;;;5118577;27;20361;-57
2022/10/14 12:15:51;;;;;;;;;;;;;;;;;;5114937;27;19922;-58
2022/10/14 12:18:18;;;;;;;;;;;;;;;;;;5120302;27;19930;-58
2022/10/14 12:20:43;;;;;;;;;;;;;;;;;;5113985;28;20290;-57
2022/10/14 12:23:08;;;;;;;;;;;;;;;;;;5113377;27;20331;-57
2022/10/14 12:25:35;;;;;;;;;;;;;;;;;;5114066;28;19958;-57
2022/10/14 12:28:00;;;;;;;;;;;;;;;;;;5114108;28;20328;-56
2022/10/14 12:30:25;;;;;;;;;;;;;;;;;;5113840;28;20294;-56
2022/10/14 12:32:50;;;;;;;;;;;;;;;;;;5113526;27;19911;-56
2022/10/14 12:35:15;;;;;;;;;;;;;;;;;;5115962;27;19963;-57
2022/10/14 12:37:41;;;;;;;;;;;;;;;;;;5134332;27;19917;-57
2022/10/14 12:40:07;;;;;;;;;;;;;;;;;;5133893;27;20281;-57
2022/10/14 12:42:32;;;;;;;;;;;;;;;;;;5122475;27;19998;-56
2022/10/14 12:44:57;;;;;;;;;;;;;;;;;;5113457;28;19908;-57
2022/10/14 12:47:22;;;;;;;;;;;;;;;;;;5114212;27;19927;-57
2022/10/14 12:49:47;;;;;;;;;;;;;;;;;;5130408;27;20293;-57
2022/10/14 12:52:12;;;;;;;;;;;;;;;;;;5114091;27;19908;-57
2022/10/14 12:54:37;;;;;;;;;;;;;;;;;;5116132;27;20033;-56
2022/10/14 12:57:02;;;;;;;;;;;;;;;;;;5133819;27;19912;-56
2022/10/14 12:59:27;;;;;;;;;;;;;;;;;;5120133;27;19991;-56
2022/10/14 13:01:52;;;;;;;;;;;;;;;;;;5124551;27;20541;-56
2022/10/14 13:04:18;;;;;;;;;;;;;;;;;;5142260;27;19911;-56
2022/10/14 13:06:43;;;;;;;;;;;;;;;;;;5154364;27;20002;-56
2022/10/14 13:09:08;;;;;;;;;;;;;;;;;;5145666;27;19917;-57
2022/10/14 13:11:33;;;;;;;;;;;;;;;;;;5144947;27;20432;-57
2022/10/14 13:13:58;;;;;;;;;;;;;;;;;;5133301;27;19907;-56
2022/10/14 13:16:23;;;;;;;;;;;;;;;;;;5146953;27;19915;-57
2022/10/14 13:18:49;;;;;;;;;;;;;;;;;;5148495;27;20343;-57
2022/10/14 13:21:14;;;;;;;;;;;;;;;;;;5124090;27;19968;-57
2022/10/14 13:23:39;;;;;;;;;;;;;;;;;;5112001;27;19919;-56
2022/10/14 13:26:04;;;;;;;;;;;;;;;;;;5112336;28;19908;-57
2022/10/14 13:28:29;;;;;;;;;;;;;;;;;;5118100;27;19911;-56
2022/10/14 13:30:54;;;;;;;;;;;;;;;;;;5116493;27;19926;-57
2022/10/14 13:33:19;;;;;;;;;;;;;;;;;;5111996;28;20351;-56
2022/10/14 13:35:44;;;;;;;;;;;;;;;;;;5110921;27;19916;-57
2022/10/14 13:38:11;;;;;;;;;;;;;;;;;;5116511;27;20127;-57
2022/10/14 13:40:36;;;;;;;;;;;;;;;;;;5118085;27;19959;-57
2022/10/14 13:43:01;;;;;;;;;;;;;;;;;;5128533;27;19921;-56
2022/10/14 13:45:26;;;;;;;;;;;;;;;;;;5112345;28;19912;-57
2022/10/14 13:47:52;;;;;;;;;;;;;;;;;;5121791;27;19911;-57
2022/10/14 13:50:17;;;;;;;;;;;;;;;;;;5132014;27;20405;-57
2022/10/14 13:52:42;;;;;;;;;;;;;;;;;;5118338;27;19919;-56
2022/10/14 13:55:07;;;;;;;;;;;;;;;;;;5111868;28;19919;-56
2022/10/14 13:57:32;;;;;;;;;;;;;;;;;;5117166;27;19997;-56
2022/10/14 13:59:57;;;;;;;;;;;;;;;;;;5132657;27;19912;-57
2022/10/14 14:02:22;;;;;;;;;;;;;;;;;;5132611;27;19907;-57
2022/10/14 14:04:47;;;;;;;;;;;;;;;;;;5104797;27;19908;-57
2022/10/14 14:07:12;;;;;;;;;;;;;;;;;;5131742;27;20037;-57
2022/10/14 14:09:37;;;;;;;;;;;;;;;;;;5126939;27;19936;-57
2022/10/14 14:12:02;;;;;;;;;;;;;;;;;;5132156;27;19911;-57
2022/10/14 14:14:27;;;;;;;;;;;;;;;;;;5132433;27;19908;-56
2022/10/14 14:16:53;;;;;;;;;;;;;;;;;;5132610;27;19914;-56
2022/10/14 14:19:18;;;;;;;;;;;;;;;;;;5119052;27;19915;-56
2022/10/14 14:21:43;;;;;;;;;;;;;;;;;;5111577;28;20423;-57
2022/10/14 14:24:08;;;;;;;;;;;;;;;;;;5111403;28;19904;-57
2022/10/14 14:26:33;;;;;;;;;;;;;;;;;;5111948;28;19908;-56
2022/10/14 14:28:58;;;;;;;;;;;;;;;;;;5112458;28;19915;-57
2022/10/14 14:31:23;;;;;;;;;;;;;;;;;;5111553;28;19919;-57
2022/10/14 14:33:48;;;;;;;;;;;;;;;;;;5111215;28;19907;-55
2022/10/14 14:36:13;;;;;;;;;;;;;;;;;;5111699;28;19919;-56
2022/10/14 14:38:38;;;;;;;;;;;;;;;;;;5111808;28;19915;-56
2022/10/14 14:41:04;;;;;;;;;;;;;;;;;;5109909;28;19915;-57
2022/10/14 14:43:29;;;;;;;;;;;;;;;;;;5110948;28;20382;-56
2022/10/14 14:45:54;;;;;;;;;;;;;;;;;;5111680;28;20408;-57
2022/10/14 14:48:19;;;;;;;;;;;;;;;;;;5111125;28;19915;-56
2022/10/14 14:50:44;;;;;;;;;;;;;;;;;;5112860;28;19934;-56
2022/10/14 14:53:09;;;;;;;;;;;;;;;;;;5111887;28;19912;-56
2022/10/14 14:55:35;;;;;;;;;;;;;;;;;;5111478;28;20011;-56
2022/10/14 14:58:00;;;;;;;;;;;;;;;;;;5111538;28;19907;-56
2022/10/14 15:00:25;;;;;;;;;;;;;;;;;;5112870;28;20013;-56
2022/10/14 15:02:50;;;;;;;;;;;;;;;;;;5121083;27;19912;-56
2022/10/14 15:05:15;;;;;;;;;;;;;;;;;;5135250;27;19954;-56
2022/10/14 15:07:40;;;;;;;;;;;;;;;;;;5125862;27;19977;-56
2022/10/14 15:10:05;;;;;;;;;;;;;;;;;;5114890;27;19912;-56
2022/10/14 15:12:30;;;;;;;;;;;;;;;;;;5119736;27;19915;-56
2022/10/14 15:14:58;;;;;;;;;;;;;;;;;;5123402;27;19977;-56
2022/10/14 15:17:24;;;;;;;;;;;;;;;;;;5130555;27;19911;-56
2022/10/14 15:19:49;;;;;;;;;;;;;;;;;;5126048;27;19987;-57
2022/10/14 15:22:14;;;;;;;;;;;;;;;;;;5121535;27;19907;-56
2022/10/14 15:24:39;;;;;;;;;;;;;;;;;;5134772;27;19931;-56
2022/10/14 15:27:05;;;;;;;;;;;;;;;;;;5122395;27;20400;-57
2022/10/14 15:29:30;;;;;;;;;;;;;;;;;;5140796;27;19911;-56
2022/10/14 15:31:55;;;;;;;;;;;;;;;;;;5148030;27;19968;-56
2022/10/14 15:34:20;;;;;;;;;;;;;;;;;;5138928;27;19907;-55
2022/10/14 15:36:45;;;;;;;;;;;;;;;;;;5114187;28;19908;-57
2022/10/14 15:39:10;;;;;;;;;;;;;;;;;;5114801;27;20363;-57
2022/10/14 15:41:37;;;;;;;;;;;;;;;;;;5114578;27;19927;-58
2022/10/14 15:44:02;;;;;;;;;;;;;;;;;;5114348;28;20022;-57
2022/10/14 15:49:11;;;;;;;;;;;;;;;;;;5114164;27;20364;-57
2022/10/14 15:51:36;;;;;;;;;;;;;;;;;;5128754;27;20312;-57
2022/10/14 15:54:01;;;;;;;;;;;;;;;;;;5132288;27;19911;-58
2022/10/14 15:56:26;;;;;;;;;;;;;;;;;;5119214;27;19920;-59
2022/10/14 15:58:51;;;;;;;;;;;;;;;;;;5114229;27;19990;-58
2022/10/14 16:01:19;;;;;;;;;;;;;;;;;;5114212;28;20018;-58
2022/10/14 16:03:44;;;;;;;;;;;;;;;;;;5113571;27;19912;-58
2022/10/14 16:06:09;;;;;;;;;;;;;;;;;;5118300;27;19912;-58
2022/10/14 16:08:34;;;;;;;;;;;;;;;;;;5134415;27;19919;-57
2022/10/14 16:10:59;;;;;;;;;;;;;;;;;;5133113;27;19912;-58
2022/10/14 16:13:24;;;;;;;;;;;;;;;;;;5133606;27;19911;-58
2022/10/14 16:15:49;;;;;;;;;;;;;;;;;;5118451;27;19916;-56
2022/10/14 16:18:14;;;;;;;;;;;;;;;;;;5113770;28;19907;-57
2022/10/14 16:20:39;;;;;;;;;;;;;;;;;;5113337;27;20388;-57
2022/10/14 16:23:05;;;;;;;;;;;;;;;;;;5113335;27;20278;-56
2022/10/14 16:25:32;;;;;;;;;;;;;;;;;;5113786;27;19916;-56
2022/10/14 16:27:57;;;;;;;;;;;;;;;;;;5113598;28;20004;-56
2022/10/14 16:30:22;;;;;;;;;;;;;;;;;;5113009;28;20007;-57
2022/10/14 16:32:49;;;;;;;;;;;;;;;;;;5112468;27;20010;-56
2022/10/14 16:35:14;;;;;;;;;;;;;;;;;;5129254;27;19915;-57
2022/10/14 16:37:39;;;;;;;;;;;;;;;;;;5134176;27;20022;-57
2022/10/14 16:40:04;;;;;;;;;;;;;;;;;;5131339;27;19917;-56